Time;durP1;ratioP1;P1;durP2;ratioP2;P2;SDS_P1;SDS_P2;PMS_P1;PMS_P2;Temp;Humidity;BMP_temperature;BMP_pressure;BME280_temperature;BME280_humidity;BME280_pressure;Samples;Min_cycle;Max_cycle;Signal;HPM_P1;HPM_P2
2021/06/04 00:01:10;;;;;;;;;;;15.30;66.20;;;;;;5029281;28;20021;-68
2021/06/04 00:03:36;;;;;;;6.47;1.30;;;15.30;66.30;;;;;;5028677;28;19951;-68
2021/06/04 00:06:02;;;;;;;;;;;15.20;66.60;;;;;;5029518;28;20060;-67
2021/06/04 00:08:28;;;;;;;4.07;1.35;;;15.10;67.10;;;;;;5028504;28;19954;-68
2021/06/04 00:10:55;;;;;;;;;;;15.10;67.50;;;;;;5029565;28;20405;-67
2021/06/04 00:13:29;;;;;;;2.72;1.10;;;15.00;66.80;;;;;;5028881;28;19908;-68
2021/06/04 00:16:04;;;;;;;3.92;1.08;;;15.00;66.80;;;;;;5028815;28;20033;-68
2021/06/04 00:18:32;;;;;;;8.35;1.48;;;14.90;67.40;;;;;;5028601;28;20502;-68
2021/06/04 00:20:58;;;;;;;3.28;1.35;;;14.80;68.90;;;;;;5028142;28;20940;-68
2021/06/04 00:23:24;;;;;;;3.67;1.33;;;14.80;69.10;;;;;;5028502;28;20168;-67
2021/06/04 00:25:50;;;;;;;;;;;14.70;68.30;;;;;;5029041;28;20676;-67
2021/06/04 00:28:15;;;;;;;10.77;1.27;;;14.80;68.30;;;;;;5028155;28;19909;-68
2021/06/04 00:30:41;;;;;;;;;;;14.80;67.60;;;;;;5029130;28;20568;-68
2021/06/04 00:33:07;;;;;;;4.95;1.60;;;14.90;67.10;;;;;;5027543;28;19921;-67
2021/06/04 00:35:34;;;;;;;;;;;14.90;66.60;;;;;;5028960;28;20030;-67
2021/06/04 00:38:00;;;;;;;;;;;15.00;66.40;;;;;;5027305;28;19992;-69
2021/06/04 00:40:33;;;;;;;6.65;1.42;;;15.00;66.00;;;;;;5028315;28;20020;-68
2021/06/04 00:42:59;;;;;;;3.25;0.90;;;15.10;65.80;;;;;;5027970;28;20402;-68
2021/06/04 00:45:31;;;;;;;2.67;1.10;;;15.10;65.60;;;;;;5028250;28;20038;-68
2021/06/04 00:47:57;;;;;;;2.40;1.60;;;15.20;65.80;;;;;;5027359;28;20459;-68
2021/06/04 00:50:35;;;;;;;;;;;15.20;65.90;;;;;;5027092;28;20401;-68
2021/06/04 00:53:02;;;;;;;7.25;1.30;;;15.10;66.10;;;;;;5027724;28;19959;-68
2021/06/04 00:55:28;;;;;;;3.80;1.13;;;15.10;66.50;;;;;;5028068;28;20136;-68
2021/06/04 00:57:54;;;;;;;;;;;15.10;66.20;;;;;;5028095;28;20461;-68
2021/06/04 01:00:43;;;;;;;5.10;1.23;;;15.10;66.80;;;;;;5027897;28;19967;-68
2021/06/04 01:03:11;;;;;;;3.17;1.35;;;15.00;66.50;;;;;;5027016;28;20076;-68
2021/06/04 01:05:40;;;;;;;3.63;1.30;;;15.10;65.80;;;;;;5028064;28;20104;-68
2021/06/04 01:08:39;;;;;;;2.67;1.13;;;15.10;65.40;;;;;;5027923;28;20113;-68
2021/06/04 01:11:29;;;;;;;10.57;1.90;;;15.10;64.50;;;;;;5026025;28;20033;-68
2021/06/04 01:14:29;;;;;;;7.18;1.50;;;15.10;64.60;;;;;;5027654;28;20033;-68
2021/06/04 01:17:02;;;;;;;5.20;0.93;;;15.10;65.00;;;;;;5025538;28;20084;-68
2021/06/04 01:19:54;;;;;;;3.63;1.40;;;15.00;65.00;;;;;;5026140;28;20042;-67
2021/06/04 01:22:39;;;;;;;4.10;1.30;;;15.00;64.90;;;;;;5027134;28;20029;-67
2021/06/04 01:25:39;;;;;;;3.67;1.23;;;14.90;64.40;;;;;;5026848;28;20037;-68
2021/06/04 01:28:23;;;;;;;6.20;1.27;;;14.90;64.80;;;;;;5026583;28;20490;-67
2021/06/04 01:31:13;;;;;;;3.42;1.30;;;14.90;64.40;;;;;;5027513;28;20032;-68
2021/06/04 01:33:48;;;;;;;3.33;1.10;;;14.90;64.00;;;;;;5026562;28;20155;-70
2021/06/04 01:36:18;;;;;;;4.65;0.95;;;14.90;63.70;;;;;;5027474;28;20124;-69
2021/06/04 01:38:45;;;;;;;4.40;1.30;;;14.90;64.00;;;;;;5027101;28;20099;-70
2021/06/04 01:41:14;;;;;;;4.80;1.23;;;14.90;65.00;;;;;;5026388;28;20044;-70
2021/06/04 01:43:51;;;;;;;3.55;1.52;;;14.90;65.00;;;;;;5025825;28;20021;-68
2021/06/04 01:46:31;;;;;;;6.85;1.55;;;14.90;66.30;;;;;;5026804;28;20034;-70
2021/06/04 01:49:01;;;;;;;3.33;1.20;;;14.90;65.50;;;;;;5026359;28;20036;-70
2021/06/04 01:51:30;;;;;;;4.57;1.35;;;14.90;65.30;;;;;;5026732;28;20288;-70
2021/06/04 01:54:01;;;;;;;8.98;1.20;;;14.90;64.00;;;;;;5027062;28;20040;-67
2021/06/04 01:56:40;;;;;;;3.47;1.50;;;14.90;63.80;;;;;;5026945;28;20022;-67
2021/06/04 01:59:29;;;;;;;6.15;1.20;;;14.90;63.90;;;;;;5026767;28;20038;-68
2021/06/04 02:01:56;;;;;;;5.10;1.20;;;14.90;64.00;;;;;;5025429;28;20041;-67
2021/06/04 02:04:26;;;;;;;5.50;1.63;;;14.90;63.60;;;;;;5026495;28;20061;-68
2021/06/04 02:06:53;;;;;;;3.65;1.20;;;15.00;63.60;;;;;;5026482;28;20040;-68
2021/06/04 02:09:20;;;;;;;3.55;1.45;;;15.00;63.60;;;;;;5026845;28;20029;-68
2021/06/04 02:11:48;;;;;;;2.72;1.05;;;15.00;63.90;;;;;;5026852;28;20061;-68
2021/06/04 02:14:19;;;;;;;3.28;1.20;;;15.00;63.60;;;;;;5026712;28;20079;-68
2021/06/04 02:16:59;;;;;;;3.17;1.42;;;15.10;63.10;;;;;;5026258;28;20072;-68
2021/06/04 02:19:25;;;;;;;3.38;1.40;;;15.10;63.30;;;;;;5025411;28;20095;-69
2021/06/04 02:22:13;;;;;;;;;;;15.10;63.70;;;;;;5026726;28;20026;-68
2021/06/04 02:24:48;;;;;;;7.90;2.40;;;15.10;63.60;;;;;;5026592;28;19988;-68
2021/06/04 02:27:36;;;;;;;1.98;1.05;;;15.10;63.20;;;;;;5024775;28;20049;-69
2021/06/04 02:30:21;;;;;;;5.25;1.10;;;15.10;63.60;;;;;;5026197;28;20026;-68
2021/06/04 02:33:00;;;;;;;3.95;1.15;;;15.10;63.90;;;;;;5025980;28;20042;-68
2021/06/04 02:35:36;;;;;;;3.63;1.38;;;15.20;63.80;;;;;;5026608;28;20156;-70
2021/06/04 02:38:17;;;;;;;6.40;1.40;;;15.20;64.20;;;;;;5025180;28;20029;-69
2021/06/04 02:41:10;;;;;;;2.30;1.27;;;15.20;65.00;;;;;;5025968;28;20045;-68
2021/06/04 02:43:41;;;;;;;5.38;1.50;;;15.20;65.90;;;;;;5026272;28;20108;-68
2021/06/04 02:46:26;;;;;;;5.40;1.40;;;15.20;66.20;;;;;;5025834;28;20424;-68
2021/06/04 02:48:53;;;;;;;3.20;1.25;;;15.20;66.80;;;;;;5026355;28;20048;-69
2021/06/04 02:51:37;;;;;;;4.13;1.40;;;15.10;66.50;;;;;;5024478;28;20596;-68
2021/06/04 02:54:10;;;;;;;5.70;1.40;;;15.10;67.30;;;;;;5029575;28;20045;-69
2021/06/04 02:56:40;;;;;;;8.65;1.70;;;15.10;67.50;;;;;;5029926;28;20029;-69
2021/06/04 02:59:08;;;;;;;2.53;1.30;;;15.00;67.20;;;;;;5029988;28;20047;-68
2021/06/04 03:01:41;;;;;;;3.92;1.70;;;15.00;67.70;;;;;;5029764;28;20025;-69
2021/06/04 03:04:08;;;;;;;4.20;1.40;;;15.00;68.30;;;;;;5029786;28;20025;-68
2021/06/04 03:06:40;;;;;;;4.88;2.28;;;15.00;69.00;;;;;;5028467;28;20044;-69
2021/06/04 03:09:11;;;;;;;3.60;1.73;;;15.00;69.30;;;;;;5029514;28;20045;-69
2021/06/04 03:11:37;;;;;;;3.10;1.30;;;15.00;69.50;;;;;;5030126;28;20445;-68
2021/06/04 03:14:06;;;;;;;4.22;1.70;;;15.00;69.80;;;;;;5028095;28;20029;-69
2021/06/04 03:16:32;;;;;;;8.52;3.35;;;15.00;69.90;;;;;;5029442;28;20026;-69
2021/06/04 03:19:05;;;;;;;9.38;2.83;;;15.10;70.00;;;;;;5029037;28;20042;-68
2021/06/04 03:21:35;;;;;;;7.30;2.03;;;15.10;70.50;;;;;;5028700;28;20517;-69
2021/06/04 03:24:03;;;;;;;4.88;1.80;;;15.10;70.20;;;;;;5029244;28;20030;-69
2021/06/04 03:26:31;;;;;;;6.05;1.50;;;15.10;70.70;;;;;;5028441;28;20025;-68
2021/06/04 03:29:00;;;;;;;5.90;1.52;;;15.10;70.80;;;;;;5028685;28;20532;-67
2021/06/04 03:31:29;;;;;;;3.78;1.58;;;15.20;70.70;;;;;;5028924;28;20029;-68
2021/06/04 03:33:54;;;;;;;5.85;1.67;;;15.20;71.00;;;;;;5027522;28;20100;-68
2021/06/04 03:36:22;;;;;;;;;;;15.20;71.30;;;;;;5027398;28;20067;-68
2021/06/04 03:38:49;;;;;;;4.90;1.73;;;15.20;70.60;;;;;;5028128;28;19912;-68
2021/06/04 03:41:17;;;;;;;8.85;1.38;;;15.20;70.20;;;;;;5028342;28;20064;-68
2021/06/04 03:43:43;;;;;;;5.40;1.33;;;15.30;69.70;;;;;;5028243;28;20103;-67
2021/06/04 03:46:09;;;;;;;;;;;15.30;70.00;;;;;;5027852;28;20038;-68
2021/06/04 03:48:35;;;;;;;5.03;1.38;;;15.30;70.20;;;;;;5027112;28;19970;-68
2021/06/04 03:51:07;;;;;;;4.82;1.80;;;15.20;69.80;;;;;;5026107;28;20042;-68
2021/06/04 03:53:33;;;;;;;4.20;1.42;;;15.20;69.70;;;;;;5026978;28;20100;-68
2021/06/04 03:55:59;;;;;;;5.50;1.60;;;15.20;69.80;;;;;;5028312;28;20116;-68
2021/06/04 03:58:25;;;;;;;3.63;1.30;;;15.30;69.90;;;;;;5025808;28;20042;-68
2021/06/04 04:00:58;;;;;;;4.07;1.40;;;15.40;70.10;;;;;;5027663;28;20525;-68
2021/06/04 04:03:25;;;;;;;4.38;1.33;;;15.70;69.20;;;;;;5027340;28;20040;-68
2021/06/04 04:05:51;;;;;;;10.65;1.55;;;16.00;68.50;;;;;;5027662;28;20112;-68
2021/06/04 04:08:19;;;;;;;13.90;1.98;;;16.40;67.50;;;;;;5028247;28;20049;-68
2021/06/04 04:10:46;;;;;;;9.00;1.60;;;16.90;66.30;;;;;;5027564;28;20038;-69
2021/06/04 04:13:16;;;;;;;4.60;1.50;;;17.40;64.90;;;;;;5027645;28;20168;-68
2021/06/04 04:15:42;;;;;;;4.47;1.60;;;17.80;63.90;;;;;;5025745;28;20136;-68
2021/06/04 04:18:08;;;;;;;12.18;1.60;;;18.10;62.80;;;;;;5027150;28;20060;-69
2021/06/04 04:20:37;;;;;;;10.45;1.40;;;18.20;61.30;;;;;;5027848;28;20037;-67
2021/06/04 04:23:05;;;;;;;9.55;2.05;;;18.30;60.20;;;;;;5028457;28;20026;-69
2021/06/04 04:25:35;;;;;;;4.57;1.88;;;18.50;60.80;;;;;;5026855;28;20516;-69
2021/06/04 04:28:03;;;;;;;3.65;1.45;;;18.60;60.90;;;;;;5028324;28;20037;-69
2021/06/04 04:30:29;;;;;;;3.97;1.35;;;18.90;61.00;;;;;;5026399;28;20887;-68
2021/06/04 04:32:55;;;;;;;9.32;2.10;;;19.10;60.90;;;;;;5027671;28;20037;-67
2021/06/04 04:35:25;;;;;;;6.32;1.67;;;19.20;59.70;;;;;;5027245;28;20132;-68
2021/06/04 04:37:51;;;;;;;8.25;1.48;;;19.60;59.30;;;;;;5027900;28;20029;-68
2021/06/04 04:40:19;;;;;;;5.40;1.20;;;20.00;59.10;;;;;;5028095;28;20657;-67
2021/06/04 04:42:45;;;;;;;10.23;1.30;;;20.20;58.00;;;;;;5028310;28;20041;-68
2021/06/04 04:45:13;;;;;;;7.80;2.30;;;20.30;57.10;;;;;;5027214;28;20037;-69
2021/06/04 04:47:39;;;;;;;6.57;1.67;;;20.50;57.00;;;;;;5026906;28;20116;-68
2021/06/04 04:50:06;;;;;;;9.48;2.08;;;20.70;56.90;;;;;;5026901;28;20104;-69
2021/06/04 04:52:31;;;;;;;2.40;1.08;;;20.80;56.90;;;;;;5027125;28;20604;-68
2021/06/04 04:54:58;;;;;;;5.28;1.60;;;20.80;55.30;;;;;;5027140;28;20030;-68
2021/06/04 04:57:26;;;;;;;6.85;1.67;;;20.80;55.10;;;;;;5027367;28;20017;-69
2021/06/04 04:59:52;;;;;;;3.70;1.52;;;20.70;54.10;;;;;;5027141;28;20084;-68
2021/06/04 05:02:18;;;;;;;5.13;1.60;;;20.70;53.80;;;;;;5028100;28;20657;-68
2021/06/04 05:04:44;;;;;;;3.38;1.40;;;20.60;53.30;;;;;;5027957;28;20092;-69
2021/06/04 05:07:10;;;;;;;5.40;1.23;;;20.50;53.60;;;;;;5027593;28;20040;-68
2021/06/04 05:09:36;;;;;;;5.72;1.95;;;20.50;54.10;;;;;;5026439;28;20136;-68
2021/06/04 05:12:03;;;;;;;4.75;1.17;;;20.50;55.00;;;;;;5027353;28;20092;-69
2021/06/04 05:14:28;;;;;;;6.00;1.63;;;20.70;54.60;;;;;;5027087;28;20111;-68
2021/06/04 05:16:54;;;;;;;2.83;1.42;;;21.00;53.80;;;;;;5025407;28;20498;-69
2021/06/04 05:19:20;;;;;;;7.65;1.30;;;21.30;53.20;;;;;;5026232;28;20045;-69
2021/06/04 05:21:46;;;;;;;6.20;1.85;;;21.50;53.50;;;;;;5027561;28;20025;-69
2021/06/04 05:24:12;;;;;;;5.45;1.75;;;21.60;52.70;;;;;;5027552;28;20087;-69
2021/06/04 05:26:37;;;;;;;6.95;2.15;;;21.60;52.90;;;;;;5025726;28;20092;-69
2021/06/04 05:29:05;;;;;;;7.97;1.58;;;21.60;53.50;;;;;;5027297;28;20055;-69
2021/06/04 05:31:31;;;;;;;5.43;1.70;;;21.60;54.20;;;;;;5026951;28;20040;-69
2021/06/04 05:33:56;;;;;;;3.75;1.50;;;21.90;53.40;;;;;;5027193;28;20053;-68
2021/06/04 05:36:31;;;;;;;7.63;1.60;;;22.00;52.50;;;;;;5026927;28;20561;-68
2021/06/04 05:38:57;;;;;;;8.00;1.95;;;22.10;52.30;;;;;;5026438;28;20025;-69
2021/06/04 05:41:25;;;;;;;4.45;1.83;;;22.30;53.10;;;;;;5027240;28;20034;-68
2021/06/04 05:43:51;;;;;;;5.18;1.50;;;22.30;55.30;;;;;;5025244;28;20029;-69
2021/06/04 05:46:18;;;;;;;8.05;2.03;;;22.20;56.20;;;;;;5025617;28;20033;-69
2021/06/04 05:48:44;;;;;;;6.30;2.15;;;22.20;56.00;;;;;;5027114;28;20037;-69
2021/06/04 05:51:16;;;;;;;7.13;1.90;;;22.20;54.80;;;;;;5026334;28;20036;-69
2021/06/04 05:53:42;;;;;;;4.47;1.38;;;22.10;53.50;;;;;;5026935;28;20057;-69
2021/06/04 05:56:09;;;;;;;4.38;1.92;;;22.10;53.00;;;;;;5025712;28;20034;-69
2021/06/04 05:58:35;;;;;;;6.70;2.10;;;22.20;53.80;;;;;;5026505;28;20029;-69
2021/06/04 06:01:05;;;;;;;3.10;1.63;;;23.00;52.50;;;;;;5026450;28;20038;-69
2021/06/04 06:03:33;;;;;;;16.83;2.35;;;24.90;48.00;;;;;;5026413;28;20029;-70
2021/06/04 06:05:59;;;;;;;8.48;1.80;;;26.80;43.00;;;;;;5025521;28;20034;-70
2021/06/04 06:08:26;;;;;;;3.15;1.88;;;28.70;36.90;;;;;;5026530;28;20668;-70
2021/06/04 06:10:52;;;;;;;6.20;1.90;;;29.90;33.40;;;;;;5025496;28;20044;-68
2021/06/04 06:13:19;;;;;;;3.05;1.35;;;31.00;30.10;;;;;;5026514;28;20025;-67
2021/06/04 06:15:45;;;;;;;9.02;1.55;;;31.50;27.70;;;;;;5025773;28;20029;-68
2021/06/04 06:18:11;;;;;;;7.32;1.42;;;32.30;26.50;;;;;;5026624;28;20083;-68
2021/06/04 06:20:39;;;;;;;5.63;1.65;;;32.60;26.10;;;;;;5026038;28;20029;-67
2021/06/04 06:23:06;;;;;;;4.55;1.67;;;32.70;25.40;;;;;;5026013;28;20402;-67
2021/06/04 06:25:36;;;;;;;7.50;1.42;;;33.10;25.30;;;;;;5026522;28;20417;-68
2021/06/04 06:28:04;;;;;;;3.88;1.30;;;33.80;24.60;;;;;;5025995;28;20018;-67
2021/06/04 06:30:31;;;;;;;6.65;1.33;;;34.40;24.10;;;;;;5025990;28;20029;-68
2021/06/04 06:32:57;;;;;;;4.75;1.73;;;34.10;23.40;;;;;;5026137;28;20037;-67
2021/06/04 06:35:30;;;;;;;6.40;1.35;;;34.50;23.90;;;;;;5026043;28;20030;-68
2021/06/04 06:37:56;;;;;;;5.53;1.63;;;34.70;23.70;;;;;;5025304;28;20036;-68
2021/06/04 06:40:22;;;;;;;4.95;1.38;;;34.20;24.70;;;;;;5025955;28;20045;-68
2021/06/04 06:42:48;;;;;;;3.40;1.35;;;34.00;23.70;;;;;;5026451;28;20511;-68
2021/06/04 06:45:14;;;;;;;2.92;1.27;;;33.70;24.70;;;;;;5025473;28;20022;-68
2021/06/04 06:47:40;;;;;;;6.88;1.70;;;34.00;24.40;;;;;;5024935;28;20038;-68
2021/06/04 06:50:09;;;;;;;8.00;1.50;;;34.40;23.60;;;;;;5024533;28;20425;-68
2021/06/04 06:52:35;;;;;;;3.92;1.45;;;34.70;23.30;;;;;;5026242;28;20029;-67
2021/06/04 06:55:00;;;;;;;7.70;1.77;;;35.10;23.20;;;;;;5024662;28;20028;-68
2021/06/04 06:57:26;;;;;;;3.42;1.40;;;35.30;22.90;;;;;;5025881;28;20029;-68
2021/06/04 06:59:52;;;;;;;5.15;1.63;;;35.40;22.60;;;;;;5025597;28;20482;-68
2021/06/04 07:02:20;;;;;;;11.65;1.92;;;35.20;22.90;;;;;;5026135;28;20040;-68
2021/06/04 07:04:46;;;;;;;4.93;1.73;;;35.50;22.20;;;;;;5026457;28;20025;-68
2021/06/04 07:07:12;;;;;;;10.65;1.83;;;35.60;21.50;;;;;;5024476;28;20390;-67
2021/06/04 07:09:38;;;;;;;5.72;2.00;;;34.90;23.00;;;;;;5025876;28;20028;-68
2021/06/04 07:12:04;;;;;;;10.50;1.73;;;34.60;23.10;;;;;;5025618;28;20030;-68
2021/06/04 07:14:33;;;;;;;6.10;1.70;;;34.70;23.40;;;;;;5025497;28;20057;-69
2021/06/04 07:17:01;;;;;;;7.80;1.90;;;34.60;22.90;;;;;;5024606;28;20026;-67
2021/06/04 07:19:28;;;;;;;4.60;1.85;;;34.10;23.80;;;;;;5025544;28;20117;-68
2021/06/04 07:21:54;;;;;;;5.55;1.55;;;33.90;23.70;;;;;;5025830;28;20033;-67
2021/06/04 07:24:22;;;;;;;7.53;1.88;;;33.80;23.70;;;;;;5025616;28;20080;-68
2021/06/04 07:26:52;;;;;;;8.05;1.42;;;33.70;23.90;;;;;;5026254;28;20375;-68
2021/06/04 07:29:23;;;;;;;8.88;1.85;;;34.00;23.70;;;;;;5025450;28;20573;-68
2021/06/04 07:31:49;;;;;;;12.68;1.55;;;33.70;24.00;;;;;;5025642;28;20037;-67
2021/06/04 07:34:16;;;;;;;10.30;1.70;;;33.60;23.70;;;;;;5025674;28;20050;-68
2021/06/04 07:36:45;;;;;;;12.43;1.73;;;33.50;24.00;;;;;;5026138;28;20112;-68
2021/06/04 07:39:19;;;;;;;6.22;1.60;;;33.70;24.10;;;;;;5027100;28;20029;-69
2021/06/04 07:41:46;;;;;;;8.05;1.45;;;34.30;23.40;;;;;;5029417;28;20041;-68
2021/06/04 07:44:14;;;;;;;6.82;1.88;;;34.00;23.90;;;;;;5027762;28;20080;-68
2021/06/04 07:46:40;;;;;;;10.10;2.28;;;33.70;24.20;;;;;;5029359;28;20033;-68
2021/06/04 07:49:06;;;;;;;4.70;1.58;;;33.60;24.40;;;;;;5027449;28;20026;-68
2021/06/04 07:51:36;;;;;;;4.90;1.50;;;33.60;24.30;;;;;;5028721;28;20032;-68
2021/06/04 07:54:04;;;;;;;4.47;2.05;;;33.70;24.70;;;;;;5027535;28;20030;-67
2021/06/04 07:56:30;;;;;;;5.68;1.50;;;34.20;23.80;;;;;;5029145;28;20033;-67
2021/06/04 07:58:55;;;;;;;8.15;1.77;;;34.10;24.50;;;;;;5026898;28;20080;-68
2021/06/04 08:01:21;;;;;;;7.45;1.77;;;34.10;24.10;;;;;;5029058;28;20037;-67
2021/06/04 08:03:48;;;;;;;4.50;1.73;;;34.20;23.50;;;;;;5029046;28;20030;-68
2021/06/04 08:06:16;;;;;;;7.25;1.83;;;33.70;24.50;;;;;;5028700;28;20281;-68
2021/06/04 08:08:42;;;;;;;6.80;1.88;;;33.40;24.90;;;;;;5027671;28;20508;-68
2021/06/04 08:11:10;;;;;;;5.53;2.00;;;33.40;25.10;;;;;;5028427;28;20029;-68
2021/06/04 08:13:36;;;;;;;6.45;1.83;;;33.50;24.40;;;;;;5028628;28;20114;-68
2021/06/04 08:16:06;;;;;;;5.90;1.75;;;33.80;24.30;;;;;;5028528;28;20099;-68
2021/06/04 08:18:35;;;;;;;3.97;1.55;;;33.90;24.40;;;;;;5028834;28;20033;-68
2021/06/04 08:21:04;;;;;;;6.88;1.42;;;34.20;24.40;;;;;;5028355;28;20127;-67
2021/06/04 08:23:35;;;;;;;9.63;2.28;;;34.30;24.50;;;;;;5028457;28;20034;-68
2021/06/04 08:26:04;;;;;;;6.65;1.42;;;34.50;22.60;;;;;;5028928;28;20057;-68
2021/06/04 08:28:30;;;;;;;6.70;1.70;;;34.10;24.30;;;;;;5028079;28;20108;-67
2021/06/04 08:30:57;;;;;;;6.13;2.08;;;33.70;24.70;;;;;;5028444;28;20116;-68
2021/06/04 08:33:29;;;;;;;5.30;1.85;;;33.90;24.50;;;;;;5026645;28;20049;-69
2021/06/04 08:35:57;;;;;;;8.73;1.55;;;33.90;23.90;;;;;;5028676;28;20060;-68
2021/06/04 08:38:24;;;;;;;5.00;1.65;;;33.70;24.40;;;;;;5026479;28;20057;-68
2021/06/04 08:40:50;;;;;;;3.03;1.65;;;33.50;24.70;;;;;;5028368;28;20401;-69
2021/06/04 08:43:22;;;;;;;6.63;1.67;;;33.50;24.30;;;;;;5027682;28;20096;-69
2021/06/04 08:46:11;;;;;;;8.65;1.40;;;33.30;24.80;;;;;;5028021;28;20025;-69
2021/06/04 08:48:45;;;;;;;8.93;2.15;;;33.30;25.10;;;;;;5027966;28;20030;-68
2021/06/04 08:51:34;;;;;;;8.50;2.15;;;32.60;25.60;;;;;;5027503;28;20609;-68
2021/06/04 08:54:14;;;;;;;4.47;1.60;;;32.10;26.10;;;;;;5028051;28;20055;-68
2021/06/04 08:56:46;;;;;;;7.72;1.88;;;32.20;26.50;;;;;;5028291;28;20033;-69
2021/06/04 08:59:18;;;;;;;7.85;1.80;;;32.50;26.00;;;;;;5025815;28;20095;-68
2021/06/04 09:02:19;;;;;;;2.95;1.42;;;33.00;25.50;;;;;;5027544;28;20083;-69
2021/06/04 09:04:53;;;;;;;13.70;1.95;;;33.60;25.50;;;;;;5027488;28;20410;-70
2021/06/04 09:07:24;;;;;;;5.50;1.98;;;33.80;25.40;;;;;;5027200;28;20075;-69
2021/06/04 09:10:12;;;;;;;8.63;1.70;;;34.10;25.40;;;;;;5027813;28;20029;-70
2021/06/04 09:12:41;;;;;;;4.05;1.30;;;34.60;25.00;;;;;;5025851;28;20029;-70
2021/06/04 09:15:09;;;;;;;5.32;1.70;;;34.70;25.20;;;;;;5027057;28;20494;-67
2021/06/04 09:17:54;;;;;;;10.00;1.50;;;34.70;23.70;;;;;;5027202;28;20033;-69
2021/06/04 09:20:30;;;;;;;8.05;1.85;;;34.40;24.60;;;;;;5026695;28;20054;-69
2021/06/04 09:23:02;;;;;;;6.72;1.38;;;33.70;25.20;;;;;;5027288;28;20120;-69
2021/06/04 09:25:30;;;;;;;5.47;1.52;;;33.10;25.80;;;;;;5027585;28;20049;-69
2021/06/04 09:28:13;;;;;;;7.68;1.60;;;32.80;26.30;;;;;;5026667;28;20065;-69
2021/06/04 09:30:45;;;;;;;5.63;1.77;;;32.20;26.70;;;;;;5027031;28;20102;-70
2021/06/04 09:33:25;;;;;;;4.20;1.67;;;31.70;26.50;;;;;;5026998;28;20946;-69
2021/06/04 09:35:59;;;;;;;4.43;1.60;;;31.50;27.80;;;;;;5027050;28;20038;-69
2021/06/04 09:38:31;;;;;;;3.38;1.50;;;30.70;27.60;;;;;;5027349;28;20059;-68
2021/06/04 09:41:10;;;;;;;5.00;1.52;;;30.10;28.60;;;;;;5027001;28;20042;-68
2021/06/04 09:43:36;;;;;;;5.00;1.63;;;29.90;29.20;;;;;;5026651;28;20068;-69
2021/06/04 09:46:06;;;;;;;4.30;1.75;;;30.40;29.90;;;;;;5027231;28;20057;-69
2021/06/04 09:48:40;;;;;;;9.57;2.10;;;31.20;29.40;;;;;;5026609;28;20100;-68
2021/06/04 09:51:05;;;;;;;14.68;1.55;;;32.20;28.50;;;;;;5027015;28;20049;-68
2021/06/04 09:53:31;;;;;;;11.13;1.80;;;32.60;27.70;;;;;;5027108;28;20457;-68
2021/06/04 09:56:08;;;;;;;4.35;1.55;;;32.40;27.80;;;;;;5026677;28;20080;-68
2021/06/04 09:58:56;;;;;;;6.40;1.85;;;32.10;27.70;;;;;;5026129;28;20405;-67
2021/06/04 10:01:26;;;;;;;8.07;1.95;;;31.70;27.70;;;;;;5026361;28;20056;-68
2021/06/04 10:03:59;;;;;;;12.20;1.83;;;31.30;28.80;;;;;;5026491;28;20342;-67
2021/06/04 10:06:38;;;;;;;4.50;2.10;;;31.20;29.40;;;;;;5026608;28;20316;-68
2021/06/04 10:09:18;;;;;;;8.35;2.15;;;31.10;29.40;;;;;;5026232;28;20029;-68
2021/06/04 10:11:43;;;;;;;6.13;1.45;;;31.00;30.00;;;;;;5026148;28;20051;-67
2021/06/04 10:14:24;;;;;;;6.32;1.92;;;31.00;29.20;;;;;;5026302;28;20111;-68
2021/06/04 10:17:25;;;;;;;7.53;2.10;;;31.00;28.90;;;;;;5026078;28;20113;-68
2021/06/04 10:19:49;;;;;;;4.13;1.85;;;30.60;29.30;;;;;;5026199;28;20073;-68
2021/06/04 10:22:17;;;;;;;4.70;1.85;;;30.80;28.50;;;;;;5026153;28;20112;-68
2021/06/04 10:25:14;;;;;;;8.73;1.70;;;30.70;28.50;;;;;;5026543;28;20034;-67
2021/06/04 10:27:52;;;;;;;3.55;1.70;;;30.60;29.90;;;;;;5024505;28;20085;-67
2021/06/04 10:30:41;;;;;;;9.18;1.98;;;30.30;30.70;;;;;;5025968;28;20030;-68
2021/06/04 10:33:07;;;;;;;4.63;2.13;;;30.30;30.70;;;;;;5026205;28;20125;-70
2021/06/04 10:35:38;;;;;;;3.78;2.20;;;30.50;28.60;;;;;;5024966;28;20113;-70
2021/06/04 10:38:27;;;;;;;9.05;1.88;;;30.30;30.00;;;;;;5024930;28;20021;-70
2021/06/04 10:41:09;;;;;;;3.50;1.90;;;30.10;30.60;;;;;;5026002;28;20037;-71
2021/06/04 10:44:10;;;;;;;5.45;2.10;;;30.00;31.30;;;;;;5026203;28;20064;-70
2021/06/04 10:46:37;;;;;;;4.95;2.17;;;29.90;31.20;;;;;;5024743;28;20488;-70
2021/06/04 10:49:26;;;;;;;5.60;2.35;;;30.00;30.40;;;;;;5025705;28;20074;-70
2021/06/04 10:51:59;;;;;;;5.07;2.15;;;29.40;30.90;;;;;;5025727;28;20390;-70
2021/06/04 10:54:41;;;;;;;3.67;1.80;;;29.10;31.60;;;;;;5026014;28;20543;-69
2021/06/04 10:57:53;;;;;;;9.82;1.73;;;28.80;31.60;;;;;;5025211;28;20037;-70
2021/06/04 11:00:30;;;;;;;8.23;2.00;;;28.50;31.10;;;;;;5025278;28;20058;-68
2021/06/04 11:03:10;;;;;;;14.30;2.30;;;27.90;31.50;;;;;;5025954;28;20029;-67
2021/06/04 11:05:43;;;;;;;7.13;1.95;;;27.40;32.30;;;;;;5026074;28;20083;-70
2021/06/04 11:08:16;;;;;;;6.40;2.13;;;27.10;33.00;;;;;;5025737;28;20034;-67
2021/06/04 11:10:41;;;;;;;9.05;2.97;;;27.20;34.10;;;;;;5025768;28;20056;-67
2021/06/04 11:13:28;;;;;;;3.00;1.60;;;27.50;34.10;;;;;;5025517;28;20076;-68
2021/06/04 11:16:06;;;;;;;5.50;2.10;;;27.80;34.00;;;;;;5028519;28;20021;-67
2021/06/04 11:18:59;;;;;;;6.68;1.52;;;28.00;33.90;;;;;;5029928;28;20025;-68
2021/06/04 11:21:30;;;;;;;5.22;2.22;;;28.10;33.20;;;;;;5029841;28;20112;-67
2021/06/04 11:24:12;;;;;;;2.58;2.17;;;28.20;33.30;;;;;;5029452;28;20026;-68
2021/06/04 11:26:56;;;;;;;3.83;1.63;;;28.20;33.00;;;;;;5029001;28;20062;-68
2021/06/04 11:29:33;;;;;;;6.47;2.13;;;28.10;32.30;;;;;;5029543;28;20745;-67
2021/06/04 11:32:16;;;;;;;7.53;2.33;;;27.90;33.20;;;;;;5029591;28;20091;-67
2021/06/04 11:35:10;;;;;;;9.50;1.75;;;27.80;33.30;;;;;;5029543;28;20037;-68
2021/06/04 11:37:59;;;;;;;9.43;2.50;;;27.70;33.90;;;;;;5028125;28;20034;-68
2021/06/04 11:40:44;;;;;;;7.93;2.15;;;27.70;33.80;;;;;;5028658;28;20046;-68
2021/06/04 11:43:12;;;;;;;6.80;1.55;;;27.80;35.40;;;;;;5027385;28;20040;-67
2021/06/04 11:45:39;;;;;;;5.97;2.03;;;27.80;35.10;;;;;;5027661;28;20021;-68
2021/06/04 11:48:26;;;;;;;8.55;2.63;;;27.80;34.50;;;;;;5029219;28;20026;-68
2021/06/04 11:51:17;;;;;;;4.03;1.98;;;27.90;34.00;;;;;;5028688;28;20403;-68
2021/06/04 11:53:47;;;;;;;7.57;1.77;;;27.90;34.70;;;;;;5029072;28;20102;-68
2021/06/04 11:56:35;;;;;;;6.05;1.80;;;27.80;33.40;;;;;;5028470;28;20014;-68
2021/06/04 11:59:00;;;;;;;11.73;2.33;;;27.80;33.40;;;;;;5028863;28;20055;-67
2021/06/04 12:01:39;;;;;;;4.30;1.52;;;27.80;33.90;;;;;;5029055;28;20474;-68
2021/06/04 12:04:19;;;;;;;8.18;1.95;;;28.10;32.60;;;;;;5028846;28;20032;-67
2021/06/04 12:06:44;;;;;;;6.72;1.50;;;28.00;33.70;;;;;;5027677;28;20088;-67
2021/06/04 12:09:33;;;;;;;7.47;2.13;;;27.70;33.00;;;;;;5028757;28;20505;-67
2021/06/04 12:12:25;;;;;;;11.63;2.15;;;27.50;33.70;;;;;;5026769;28;20030;-67
2021/06/04 12:14:57;;;;;;;11.35;1.90;;;27.30;34.20;;;;;;5027259;28;20036;-67
2021/06/04 12:17:25;;;;;;;9.32;2.13;;;27.00;36.20;;;;;;5028854;28;20449;-67
2021/06/04 12:20:27;;;;;;;5.43;1.55;;;26.80;35.50;;;;;;5028688;28;20441;-67
2021/06/04 12:23:08;;;;;;;9.57;2.28;;;26.60;35.20;;;;;;5026854;28;20030;-68
2021/06/04 12:25:48;;;;;;;6.03;2.03;;;26.30;36.50;;;;;;5027564;28;20581;-67
2021/06/04 12:28:17;;;;;;;4.43;2.22;;;26.00;36.70;;;;;;5027089;28;20379;-68
2021/06/04 12:30:55;;;;;;;9.63;1.90;;;25.90;38.00;;;;;;5028519;28;20068;-67
2021/06/04 12:33:39;;;;;;;5.03;2.17;;;25.80;36.50;;;;;;5027265;28;20089;-67
2021/06/04 12:36:26;;;;;;;11.35;1.67;;;25.70;36.70;;;;;;5027222;28;20025;-66
2021/06/04 12:38:52;;;;;;;7.30;2.08;;;25.90;37.90;;;;;;5028056;28;20045;-66
2021/06/04 12:41:24;;;;;;;5.93;1.90;;;26.00;38.50;;;;;;5027719;28;20033;-67
2021/06/04 12:43:53;;;;;;;3.90;1.80;;;26.10;38.40;;;;;;5028409;28;20025;-67
2021/06/04 12:46:24;;;;;;;4.18;2.25;;;26.20;38.70;;;;;;5027831;28;20026;-67
2021/06/04 12:49:08;;;;;;;6.63;2.28;;;26.10;38.50;;;;;;5028145;28;20542;-67
2021/06/04 12:51:40;;;;;;;5.88;1.85;;;26.10;37.70;;;;;;5027935;28;20565;-67
2021/06/04 12:54:09;;;;;;;3.90;2.05;;;26.20;36.40;;;;;;5028055;28;20094;-67
2021/06/04 12:56:49;;;;;;;3.67;2.13;;;26.50;36.20;;;;;;5027181;28;20030;-68
2021/06/04 12:59:18;;;;;;;7.85;1.67;;;26.80;37.00;;;;;;5026090;28;20509;-67
2021/06/04 13:02:13;;;;;;;12.90;2.13;;;27.10;36.90;;;;;;5027560;28;20509;-68
2021/06/04 13:04:42;;;;;;;2.60;1.48;;;27.50;35.70;;;;;;5025862;28;20124;-68
2021/06/04 13:07:29;;;;;;;3.33;2.10;;;27.70;35.40;;;;;;5027529;28;20113;-67
2021/06/04 13:10:15;;;;;;;3.67;2.13;;;27.80;34.20;;;;;;5027222;28;20442;-67
2021/06/04 13:12:41;;;;;;;;;;;27.80;34.50;;;;;;5028070;28;20026;-67
2021/06/04 13:15:23;;;;;;;5.37;1.50;;;27.80;35.60;;;;;;5027596;28;19911;-67
2021/06/04 13:18:13;;;;;;;4.53;2.08;;;27.80;34.80;;;;;;5026211;28;20067;-67